sensor_id;sensor_type;location;lat;lon;timestamp;P1;durP1;ratioP1;P2;durP2;ratioP2
68812;SDS011;55808;48.112;11.552;2022-08-19T00:00:28;42.90;;;41.07;;
68812;SDS011;55808;48.112;11.552;2022-08-19T00:02:54;43.90;;;42.10;;
68812;SDS011;55808;48.112;11.552;2022-08-19T00:05:20;44.60;;;42.60;;
68812;SDS011;55808;48.112;11.552;2022-08-19T00:07:47;43.80;;;41.93;;
68812;SDS011;55808;48.112;11.552;2022-08-19T00:10:14;45.50;;;42.90;;
68812;SDS011;55808;48.112;11.552;2022-08-19T00:12:41;43.23;;;41.47;;
68812;SDS011;55808;48.112;11.552;2022-08-19T00:15:09;44.70;;;42.77;;
68812;SDS011;55808;48.112;11.552;2022-08-19T00:17:41;43.23;;;41.40;;
68812;SDS011;55808;48.112;11.552;2022-08-19T00:20:09;43.90;;;41.90;;
68812;SDS011;55808;48.112;11.552;2022-08-19T00:22:37;45.23;;;43.07;;
68812;SDS011;55808;48.112;11.552;2022-08-19T00:25:03;43.47;;;41.37;;
68812;SDS011;55808;48.112;11.552;2022-08-19T00:27:30;42.70;;;40.97;;
68812;SDS011;55808;48.112;11.552;2022-08-19T00:29:56;44.57;;;42.40;;
68812;SDS011;55808;48.112;11.552;2022-08-19T00:32:23;43.03;;;41.30;;
68812;SDS011;55808;48.112;11.552;2022-08-19T00:34:50;43.63;;;42.03;;
68812;SDS011;55808;48.112;11.552;2022-08-19T00:37:17;46.43;;;43.67;;
68812;SDS011;55808;48.112;11.552;2022-08-19T00:39:44;43.67;;;41.80;;
68812;SDS011;55808;48.112;11.552;2022-08-19T00:42:10;43.80;;;41.87;;
68812;SDS011;55808;48.112;11.552;2022-08-19T00:44:35;44.83;;;42.77;;
68812;SDS011;55808;48.112;11.552;2022-08-19T00:47:01;43.87;;;41.90;;
68812;SDS011;55808;48.112;11.552;2022-08-19T00:49:32;42.50;;;40.77;;
68812;SDS011;55808;48.112;11.552;2022-08-19T00:52:03;44.07;;;41.80;;
68812;SDS011;55808;48.112;11.552;2022-08-19T00:54:33;43.57;;;41.73;;
68812;SDS011;55808;48.112;11.552;2022-08-19T00:57:02;44.37;;;42.47;;
68812;SDS011;55808;48.112;11.552;2022-08-19T00:59:31;42.60;;;40.87;;
68812;SDS011;55808;48.112;11.552;2022-08-19T01:02:01;45.13;;;42.77;;
68812;SDS011;55808;48.112;11.552;2022-08-19T01:04:27;46.00;;;43.63;;
68812;SDS011;55808;48.112;11.552;2022-08-19T01:06:52;44.63;;;42.53;;
68812;SDS011;55808;48.112;11.552;2022-08-19T01:09:18;43.57;;;41.87;;
68812;SDS011;55808;48.112;11.552;2022-08-19T01:11:44;44.23;;;42.23;;
68812;SDS011;55808;48.112;11.552;2022-08-19T01:14:10;44.87;;;42.80;;
68812;SDS011;55808;48.112;11.552;2022-08-19T01:16:37;42.70;;;40.90;;
68812;SDS011;55808;48.112;11.552;2022-08-19T01:19:09;45.17;;;42.97;;
68812;SDS011;55808;48.112;11.552;2022-08-19T01:22:05;44.53;;;42.50;;
68812;SDS011;55808;48.112;11.552;2022-08-19T01:24:44;44.30;;;42.30;;
68812;SDS011;55808;48.112;11.552;2022-08-19T01:27:10;45.07;;;42.90;;
68812;SDS011;55808;48.112;11.552;2022-08-19T01:29:37;43.60;;;41.73;;
68812;SDS011;55808;48.112;11.552;2022-08-19T01:32:04;43.27;;;41.53;;
68812;SDS011;55808;48.112;11.552;2022-08-19T01:34:31;44.87;;;42.80;;
68812;SDS011;55808;48.112;11.552;2022-08-19T01:36:59;44.47;;;42.57;;
68812;SDS011;55808;48.112;11.552;2022-08-19T01:39:26;43.80;;;41.77;;
68812;SDS011;55808;48.112;11.552;2022-08-19T01:41:53;42.70;;;40.97;;
68812;SDS011;55808;48.112;11.552;2022-08-19T01:44:21;43.50;;;41.73;;
68812;SDS011;55808;48.112;11.552;2022-08-19T01:46:49;47.90;;;45.47;;
68812;SDS011;55808;48.112;11.552;2022-08-19T01:49:17;48.23;;;45.70;;
68812;SDS011;55808;48.112;11.552;2022-08-19T01:51:44;53.10;;;49.40;;
68812;SDS011;55808;48.112;11.552;2022-08-19T01:54:11;53.40;;;49.80;;
68812;SDS011;55808;48.112;11.552;2022-08-19T01:56:37;51.47;;;48.27;;
68812;SDS011;55808;48.112;11.552;2022-08-19T01:59:05;52.40;;;48.87;;
68812;SDS011;55808;48.112;11.552;2022-08-19T02:01:37;52.77;;;49.37;;
68812;SDS011;55808;48.112;11.552;2022-08-19T02:04:02;51.57;;;48.07;;
68812;SDS011;55808;48.112;11.552;2022-08-19T02:06:28;50.67;;;47.47;;
68812;SDS011;55808;48.112;11.552;2022-08-19T02:08:54;54.03;;;50.27;;
68812;SDS011;55808;48.112;11.552;2022-08-19T02:11:22;50.57;;;47.70;;
68812;SDS011;55808;48.112;11.552;2022-08-19T02:13:52;49.70;;;46.87;;
68812;SDS011;55808;48.112;11.552;2022-08-19T02:16:18;52.37;;;49.30;;
68812;SDS011;55808;48.112;11.552;2022-08-19T02:18:45;52.07;;;48.90;;
68812;SDS011;55808;48.112;11.552;2022-08-19T02:21:13;52.20;;;49.00;;
68812;SDS011;55808;48.112;11.552;2022-08-19T02:23:43;53.70;;;50.20;;
68812;SDS011;55808;48.112;11.552;2022-08-19T02:26:09;51.87;;;48.73;;
68812;SDS011;55808;48.112;11.552;2022-08-19T02:28:35;52.67;;;49.20;;
68812;SDS011;55808;48.112;11.552;2022-08-19T02:31:02;52.33;;;49.23;;
68812;SDS011;55808;48.112;11.552;2022-08-19T02:33:28;50.70;;;48.00;;
68812;SDS011;55808;48.112;11.552;2022-08-19T02:35:54;50.67;;;47.87;;
68812;SDS011;55808;48.112;11.552;2022-08-19T02:38:20;51.80;;;48.97;;
68812;SDS011;55808;48.112;11.552;2022-08-19T02:40:56;53.77;;;49.87;;
68812;SDS011;55808;48.112;11.552;2022-08-19T02:43:28;51.83;;;48.90;;
68812;SDS011;55808;48.112;11.552;2022-08-19T02:45:55;51.63;;;48.23;;
68812;SDS011;55808;48.112;11.552;2022-08-19T02:48:22;51.43;;;48.20;;
68812;SDS011;55808;48.112;11.552;2022-08-19T02:50:49;53.87;;;50.13;;
68812;SDS011;55808;48.112;11.552;2022-08-19T02:53:20;52.10;;;48.97;;
68812;SDS011;55808;48.112;11.552;2022-08-19T02:55:48;50.93;;;47.80;;
68812;SDS011;55808;48.112;11.552;2022-08-19T02:58:15;50.13;;;47.00;;
68812;SDS011;55808;48.112;11.552;2022-08-19T03:00:42;55.47;;;50.80;;
68812;SDS011;55808;48.112;11.552;2022-08-19T03:03:14;51.43;;;48.40;;
68812;SDS011;55808;48.112;11.552;2022-08-19T03:05:40;49.63;;;46.90;;
68812;SDS011;55808;48.112;11.552;2022-08-19T03:08:06;50.10;;;47.60;;
68812;SDS011;55808;48.112;11.552;2022-08-19T03:10:39;50.97;;;47.87;;
68812;SDS011;55808;48.112;11.552;2022-08-19T03:13:08;51.93;;;48.80;;
68812;SDS011;55808;48.112;11.552;2022-08-19T03:15:33;51.10;;;48.00;;
68812;SDS011;55808;48.112;11.552;2022-08-19T03:17:59;49.93;;;46.73;;
68812;SDS011;55808;48.112;11.552;2022-08-19T03:20:25;50.67;;;47.97;;
68812;SDS011;55808;48.112;11.552;2022-08-19T03:22:51;51.23;;;48.40;;
68812;SDS011;55808;48.112;11.552;2022-08-19T03:25:16;49.97;;;47.33;;
68812;SDS011;55808;48.112;11.552;2022-08-19T03:27:42;49.47;;;46.87;;
68812;SDS011;55808;48.112;11.552;2022-08-19T03:30:09;52.33;;;48.57;;
68812;SDS011;55808;48.112;11.552;2022-08-19T03:32:35;49.87;;;47.17;;
68812;SDS011;55808;48.112;11.552;2022-08-19T03:35:01;49.60;;;46.80;;
68812;SDS011;55808;48.112;11.552;2022-08-19T03:37:27;50.97;;;47.97;;
68812;SDS011;55808;48.112;11.552;2022-08-19T03:39:53;50.70;;;47.67;;
68812;SDS011;55808;48.112;11.552;2022-08-19T03:42:19;51.17;;;48.23;;
68812;SDS011;55808;48.112;11.552;2022-08-19T03:44:44;49.57;;;46.93;;
68812;SDS011;55808;48.112;11.552;2022-08-19T03:47:10;50.77;;;48.07;;
68812;SDS011;55808;48.112;11.552;2022-08-19T03:49:40;50.70;;;48.17;;
68812;SDS011;55808;48.112;11.552;2022-08-19T03:52:06;49.83;;;47.20;;
68812;SDS011;55808;48.112;11.552;2022-08-19T03:54:32;50.30;;;47.50;;
68812;SDS011;55808;48.112;11.552;2022-08-19T03:56:59;50.23;;;47.37;;
68812;SDS011;55808;48.112;11.552;2022-08-19T03:59:29;51.10;;;48.03;;
68812;SDS011;55808;48.112;11.552;2022-08-19T04:01:57;48.10;;;45.67;;
68812;SDS011;55808;48.112;11.552;2022-08-19T04:04:25;50.67;;;47.90;;
68812;SDS011;55808;48.112;11.552;2022-08-19T04:06:51;52.60;;;49.40;;
68812;SDS011;55808;48.112;11.552;2022-08-19T04:09:17;51.80;;;48.47;;
68812;SDS011;55808;48.112;11.552;2022-08-19T04:11:45;49.67;;;46.87;;
68812;SDS011;55808;48.112;11.552;2022-08-19T04:14:14;50.70;;;47.50;;
68812;SDS011;55808;48.112;11.552;2022-08-19T04:16:45;52.93;;;49.27;;
68812;SDS011;55808;48.112;11.552;2022-08-19T04:19:12;50.33;;;47.60;;
68812;SDS011;55808;48.112;11.552;2022-08-19T04:21:39;49.17;;;46.60;;
68812;SDS011;55808;48.112;11.552;2022-08-19T04:24:05;52.57;;;49.43;;
68812;SDS011;55808;48.112;11.552;2022-08-19T04:26:34;50.43;;;47.20;;
68812;SDS011;55808;48.112;11.552;2022-08-19T04:29:04;51.60;;;48.50;;
68812;SDS011;55808;48.112;11.552;2022-08-19T04:31:32;49.03;;;46.47;;
68812;SDS011;55808;48.112;11.552;2022-08-19T04:34:00;52.20;;;49.00;;
68812;SDS011;55808;48.112;11.552;2022-08-19T04:36:30;50.50;;;47.63;;
68812;SDS011;55808;48.112;11.552;2022-08-19T04:38:58;51.50;;;48.43;;
68812;SDS011;55808;48.112;11.552;2022-08-19T04:41:26;50.30;;;47.20;;
68812;SDS011;55808;48.112;11.552;2022-08-19T04:44:11;50.77;;;47.83;;
68812;SDS011;55808;48.112;11.552;2022-08-19T04:46:37;49.47;;;46.70;;
68812;SDS011;55808;48.112;11.552;2022-08-19T04:49:04;48.10;;;45.30;;
68812;SDS011;55808;48.112;11.552;2022-08-19T04:51:31;52.33;;;49.20;;
68812;SDS011;55808;48.112;11.552;2022-08-19T04:53:57;50.17;;;47.20;;
68812;SDS011;55808;48.112;11.552;2022-08-19T04:56:25;51.13;;;48.00;;
68812;SDS011;55808;48.112;11.552;2022-08-19T04:58:51;49.43;;;46.40;;
68812;SDS011;55808;48.112;11.552;2022-08-19T05:01:19;51.53;;;48.17;;
68812;SDS011;55808;48.112;11.552;2022-08-19T05:03:47;49.00;;;46.30;;
68812;SDS011;55808;48.112;11.552;2022-08-19T05:06:14;51.00;;;48.00;;
68812;SDS011;55808;48.112;11.552;2022-08-19T05:08:41;51.10;;;48.43;;
68812;SDS011;55808;48.112;11.552;2022-08-19T05:11:31;49.83;;;47.20;;
68812;SDS011;55808;48.112;11.552;2022-08-19T05:13:58;49.63;;;46.90;;
68812;SDS011;55808;48.112;11.552;2022-08-19T05:16:24;50.40;;;47.50;;
68812;SDS011;55808;48.112;11.552;2022-08-19T05:18:51;49.93;;;47.50;;
68812;SDS011;55808;48.112;11.552;2022-08-19T05:21:36;49.17;;;46.77;;
68812;SDS011;55808;48.112;11.552;2022-08-19T05:24:21;50.67;;;47.27;;
68812;SDS011;55808;48.112;11.552;2022-08-19T05:26:48;50.73;;;48.07;;
68812;SDS011;55808;48.112;11.552;2022-08-19T05:29:16;49.80;;;46.90;;
68812;SDS011;55808;48.112;11.552;2022-08-19T05:31:47;49.97;;;47.40;;
68812;SDS011;55808;48.112;11.552;2022-08-19T05:34:17;52.50;;;49.10;;
68812;SDS011;55808;48.112;11.552;2022-08-19T05:36:46;50.70;;;48.00;;
68812;SDS011;55808;48.112;11.552;2022-08-19T05:39:14;51.13;;;47.77;;
68812;SDS011;55808;48.112;11.552;2022-08-19T05:41:44;50.47;;;47.73;;
68812;SDS011;55808;48.112;11.552;2022-08-19T05:44:11;50.30;;;47.57;;
68812;SDS011;55808;48.112;11.552;2022-08-19T05:46:37;50.23;;;47.33;;
68812;SDS011;55808;48.112;11.552;2022-08-19T05:49:05;50.47;;;47.60;;
68812;SDS011;55808;48.112;11.552;2022-08-19T05:51:31;50.83;;;47.70;;
68812;SDS011;55808;48.112;11.552;2022-08-19T05:53:59;50.30;;;47.40;;
68812;SDS011;55808;48.112;11.552;2022-08-19T05:56:30;52.30;;;49.30;;
68812;SDS011;55808;48.112;11.552;2022-08-19T05:58:57;51.03;;;47.77;;
68812;SDS011;55808;48.112;11.552;2022-08-19T06:01:24;54.83;;;51.17;;
68812;SDS011;55808;48.112;11.552;2022-08-19T06:03:51;53.90;;;50.17;;
68812;SDS011;55808;48.112;11.552;2022-08-19T06:06:17;52.47;;;49.47;;
68812;SDS011;55808;48.112;11.552;2022-08-19T06:08:43;52.73;;;49.10;;
68812;SDS011;55808;48.112;11.552;2022-08-19T06:13:43;55.93;;;51.50;;
68812;SDS011;55808;48.112;11.552;2022-08-19T06:16:15;53.13;;;49.57;;
68812;SDS011;55808;48.112;11.552;2022-08-19T06:18:47;51.63;;;48.57;;
68812;SDS011;55808;48.112;11.552;2022-08-19T06:21:18;55.80;;;51.80;;
68812;SDS011;55808;48.112;11.552;2022-08-19T06:23:45;54.33;;;50.90;;
68812;SDS011;55808;48.112;11.552;2022-08-19T06:26:12;55.67;;;51.97;;
68812;SDS011;55808;48.112;11.552;2022-08-19T06:28:39;56.13;;;51.70;;
68812;SDS011;55808;48.112;11.552;2022-08-19T06:31:11;58.23;;;53.77;;
68812;SDS011;55808;48.112;11.552;2022-08-19T06:33:39;54.70;;;51.03;;
68812;SDS011;55808;48.112;11.552;2022-08-19T06:36:06;54.13;;;50.70;;
68812;SDS011;55808;48.112;11.552;2022-08-19T06:38:32;53.17;;;49.73;;
68812;SDS011;55808;48.112;11.552;2022-08-19T06:41:01;56.37;;;52.60;;
68812;SDS011;55808;48.112;11.552;2022-08-19T06:43:30;55.87;;;51.90;;
68812;SDS011;55808;48.112;11.552;2022-08-19T06:45:56;71.60;;;60.10;;
68812;SDS011;55808;48.112;11.552;2022-08-19T06:48:21;57.80;;;53.40;;
68812;SDS011;55808;48.112;11.552;2022-08-19T06:50:47;56.70;;;52.73;;
68812;SDS011;55808;48.112;11.552;2022-08-19T06:53:17;60.40;;;55.20;;
68812;SDS011;55808;48.112;11.552;2022-08-19T06:55:45;60.60;;;55.80;;
68812;SDS011;55808;48.112;11.552;2022-08-19T06:58:13;61.80;;;57.10;;
68812;SDS011;55808;48.112;11.552;2022-08-19T07:00:40;60.87;;;55.70;;
68812;SDS011;55808;48.112;11.552;2022-08-19T07:03:06;58.50;;;54.07;;
68812;SDS011;55808;48.112;11.552;2022-08-19T07:05:33;59.43;;;54.40;;
68812;SDS011;55808;48.112;11.552;2022-08-19T07:08:04;57.83;;;53.37;;
68812;SDS011;55808;48.112;11.552;2022-08-19T07:10:31;59.27;;;54.67;;
68812;SDS011;55808;48.112;11.552;2022-08-19T07:13:00;58.97;;;54.67;;
68812;SDS011;55808;48.112;11.552;2022-08-19T07:15:26;64.00;;;57.63;;
68812;SDS011;55808;48.112;11.552;2022-08-19T07:17:52;57.97;;;53.90;;
68812;SDS011;55808;48.112;11.552;2022-08-19T07:20:18;58.80;;;54.67;;
68812;SDS011;55808;48.112;11.552;2022-08-19T07:22:43;62.57;;;57.37;;
68812;SDS011;55808;48.112;11.552;2022-08-19T07:25:10;58.17;;;53.87;;
68812;SDS011;55808;48.112;11.552;2022-08-19T07:27:38;61.47;;;56.20;;
68812;SDS011;55808;48.112;11.552;2022-08-19T07:30:04;59.13;;;54.50;;
68812;SDS011;55808;48.112;11.552;2022-08-19T07:32:31;59.67;;;55.37;;
68812;SDS011;55808;48.112;11.552;2022-08-19T07:34:58;59.53;;;55.37;;
68812;SDS011;55808;48.112;11.552;2022-08-19T07:37:25;60.93;;;56.10;;
68812;SDS011;55808;48.112;11.552;2022-08-19T07:39:54;61.80;;;57.13;;
68812;SDS011;55808;48.112;11.552;2022-08-19T07:42:20;60.37;;;55.47;;
68812;SDS011;55808;48.112;11.552;2022-08-19T07:44:46;65.00;;;59.57;;
68812;SDS011;55808;48.112;11.552;2022-08-19T07:47:11;62.57;;;57.87;;
68812;SDS011;55808;48.112;11.552;2022-08-19T07:49:38;62.67;;;58.17;;
68812;SDS011;55808;48.112;11.552;2022-08-19T07:52:05;61.63;;;56.87;;
68812;SDS011;55808;48.112;11.552;2022-08-19T07:54:34;62.37;;;57.90;;
68812;SDS011;55808;48.112;11.552;2022-08-19T07:57:01;62.57;;;58.13;;
68812;SDS011;55808;48.112;11.552;2022-08-19T07:59:28;64.83;;;59.77;;
68812;SDS011;55808;48.112;11.552;2022-08-19T08:01:54;64.03;;;58.90;;
68812;SDS011;55808;48.112;11.552;2022-08-19T08:04:23;62.07;;;56.97;;
68812;SDS011;55808;48.112;11.552;2022-08-19T08:07:08;63.77;;;58.40;;
68812;SDS011;55808;48.112;11.552;2022-08-19T08:09:52;61.17;;;56.07;;
68812;SDS011;55808;48.112;11.552;2022-08-19T08:12:19;60.17;;;55.67;;
68812;SDS011;55808;48.112;11.552;2022-08-19T08:14:49;63.20;;;58.27;;
68812;SDS011;55808;48.112;11.552;2022-08-19T08:17:18;62.73;;;57.40;;
68812;SDS011;55808;48.112;11.552;2022-08-19T08:19:48;64.00;;;58.63;;
68812;SDS011;55808;48.112;11.552;2022-08-19T08:22:17;67.80;;;61.90;;
68812;SDS011;55808;48.112;11.552;2022-08-19T08:25:08;67.77;;;61.87;;
68812;SDS011;55808;48.112;11.552;2022-08-19T08:27:37;66.20;;;60.67;;
68812;SDS011;55808;48.112;11.552;2022-08-19T08:30:08;66.47;;;60.87;;
68812;SDS011;55808;48.112;11.552;2022-08-19T08:32:36;68.23;;;62.63;;
68812;SDS011;55808;48.112;11.552;2022-08-19T08:35:06;67.07;;;61.20;;
68812;SDS011;55808;48.112;11.552;2022-08-19T08:37:33;67.30;;;61.87;;
68812;SDS011;55808;48.112;11.552;2022-08-19T08:40:02;65.70;;;60.00;;
68812;SDS011;55808;48.112;11.552;2022-08-19T08:42:32;64.57;;;58.77;;
68812;SDS011;55808;48.112;11.552;2022-08-19T08:47:43;66.03;;;60.53;;
68812;SDS011;55808;48.112;11.552;2022-08-19T08:50:19;66.20;;;60.00;;
68812;SDS011;55808;48.112;11.552;2022-08-19T08:52:48;66.80;;;61.17;;
68812;SDS011;55808;48.112;11.552;2022-08-19T08:55:19;64.77;;;58.60;;
68812;SDS011;55808;48.112;11.552;2022-08-19T09:00:26;68.80;;;62.73;;
68812;SDS011;55808;48.112;11.552;2022-08-19T09:02:57;67.60;;;61.70;;
68812;SDS011;55808;48.112;11.552;2022-08-19T09:05:24;65.13;;;59.60;;
68812;SDS011;55808;48.112;11.552;2022-08-19T09:08:00;63.03;;;57.53;;
68812;SDS011;55808;48.112;11.552;2022-08-19T09:10:33;65.03;;;59.70;;
68812;SDS011;55808;48.112;11.552;2022-08-19T09:15:55;66.30;;;60.10;;
68812;SDS011;55808;48.112;11.552;2022-08-19T09:18:25;65.27;;;59.97;;
68812;SDS011;55808;48.112;11.552;2022-08-19T09:21:03;64.23;;;58.80;;
68812;SDS011;55808;48.112;11.552;2022-08-19T09:23:28;66.63;;;60.63;;
68812;SDS011;55808;48.112;11.552;2022-08-19T09:25:54;63.97;;;58.40;;
68812;SDS011;55808;48.112;11.552;2022-08-19T09:28:19;61.63;;;56.63;;
68812;SDS011;55808;48.112;11.552;2022-08-19T09:30:45;63.00;;;57.50;;
68812;SDS011;55808;48.112;11.552;2022-08-19T09:33:11;63.47;;;58.23;;
68812;SDS011;55808;48.112;11.552;2022-08-19T09:35:36;61.60;;;56.30;;
68812;SDS011;55808;48.112;11.552;2022-08-19T09:38:02;62.97;;;58.10;;
68812;SDS011;55808;48.112;11.552;2022-08-19T09:40:28;62.03;;;56.93;;
68812;SDS011;55808;48.112;11.552;2022-08-19T09:42:55;63.20;;;57.80;;
68812;SDS011;55808;48.112;11.552;2022-08-19T09:45:22;62.70;;;57.80;;
68812;SDS011;55808;48.112;11.552;2022-08-19T09:47:51;64.63;;;59.70;;
68812;SDS011;55808;48.112;11.552;2022-08-19T09:50:18;63.13;;;58.23;;
68812;SDS011;55808;48.112;11.552;2022-08-19T09:52:44;62.37;;;57.20;;
68812;SDS011;55808;48.112;11.552;2022-08-19T09:55:10;63.43;;;58.10;;
68812;SDS011;55808;48.112;11.552;2022-08-19T09:57:36;63.53;;;58.37;;
68812;SDS011;55808;48.112;11.552;2022-08-19T10:00:03;65.70;;;60.53;;
68812;SDS011;55808;48.112;11.552;2022-08-19T10:02:30;62.70;;;57.70;;
68812;SDS011;55808;48.112;11.552;2022-08-19T10:04:56;59.70;;;55.03;;
68812;SDS011;55808;48.112;11.552;2022-08-19T10:07:40;64.60;;;58.90;;
68812;SDS011;55808;48.112;11.552;2022-08-19T10:10:06;63.60;;;58.30;;
68812;SDS011;55808;48.112;11.552;2022-08-19T10:12:34;62.90;;;58.20;;
68812;SDS011;55808;48.112;11.552;2022-08-19T10:15:01;63.20;;;58.07;;
68812;SDS011;55808;48.112;11.552;2022-08-19T10:17:28;61.67;;;57.00;;
68812;SDS011;55808;48.112;11.552;2022-08-19T10:19:54;60.60;;;56.20;;
68812;SDS011;55808;48.112;11.552;2022-08-19T10:22:20;62.03;;;57.13;;
68812;SDS011;55808;48.112;11.552;2022-08-19T10:24:46;64.40;;;59.67;;
68812;SDS011;55808;48.112;11.552;2022-08-19T10:27:12;60.13;;;55.93;;
68812;SDS011;55808;48.112;11.552;2022-08-19T10:29:39;62.63;;;58.00;;
68812;SDS011;55808;48.112;11.552;2022-08-19T10:32:06;60.83;;;56.40;;
68812;SDS011;55808;48.112;11.552;2022-08-19T10:34:33;62.43;;;57.73;;
68812;SDS011;55808;48.112;11.552;2022-08-19T10:37:00;62.07;;;57.77;;
68812;SDS011;55808;48.112;11.552;2022-08-19T10:39:28;61.50;;;57.20;;
68812;SDS011;55808;48.112;11.552;2022-08-19T10:41:55;61.07;;;57.03;;
68812;SDS011;55808;48.112;11.552;2022-08-19T10:44:21;64.23;;;59.20;;
68812;SDS011;55808;48.112;11.552;2022-08-19T10:46:49;61.80;;;57.37;;
68812;SDS011;55808;48.112;11.552;2022-08-19T10:49:14;59.83;;;55.20;;
68812;SDS011;55808;48.112;11.552;2022-08-19T10:51:40;60.87;;;57.03;;
68812;SDS011;55808;48.112;11.552;2022-08-19T10:54:45;57.70;;;54.37;;
68812;SDS011;55808;48.112;11.552;2022-08-19T10:57:30;54.80;;;51.97;;
68812;SDS011;55808;48.112;11.552;2022-08-19T10:59:56;59.00;;;55.63;;
68812;SDS011;55808;48.112;11.552;2022-08-19T11:02:22;58.90;;;55.80;;
68812;SDS011;55808;48.112;11.552;2022-08-19T11:04:48;59.03;;;56.23;;
68812;SDS011;55808;48.112;11.552;2022-08-19T11:07:15;58.00;;;54.70;;
68812;SDS011;55808;48.112;11.552;2022-08-19T11:09:42;57.60;;;54.37;;
68812;SDS011;55808;48.112;11.552;2022-08-19T11:12:08;58.37;;;55.17;;
68812;SDS011;55808;48.112;11.552;2022-08-19T11:14:35;60.53;;;56.70;;
68812;SDS011;55808;48.112;11.552;2022-08-19T11:17:01;58.70;;;55.20;;
68812;SDS011;55808;48.112;11.552;2022-08-19T11:19:29;57.40;;;54.33;;
68812;SDS011;55808;48.112;11.552;2022-08-19T11:21:55;57.07;;;54.27;;
68812;SDS011;55808;48.112;11.552;2022-08-19T11:24:22;56.77;;;53.87;;
68812;SDS011;55808;48.112;11.552;2022-08-19T11:26:50;57.40;;;53.90;;
68812;SDS011;55808;48.112;11.552;2022-08-19T11:29:19;57.67;;;54.47;;
68812;SDS011;55808;48.112;11.552;2022-08-19T11:31:47;58.67;;;54.87;;
68812;SDS011;55808;48.112;11.552;2022-08-19T11:34:18;55.70;;;52.50;;
68812;SDS011;55808;48.112;11.552;2022-08-19T11:36:47;54.50;;;51.60;;
68812;SDS011;55808;48.112;11.552;2022-08-19T11:39:15;56.57;;;53.40;;
68812;SDS011;55808;48.112;11.552;2022-08-19T11:41:42;55.27;;;52.17;;
68812;SDS011;55808;48.112;11.552;2022-08-19T11:44:08;54.70;;;51.63;;
68812;SDS011;55808;48.112;11.552;2022-08-19T11:46:34;54.27;;;51.47;;
68812;SDS011;55808;48.112;11.552;2022-08-19T11:49:02;51.97;;;49.27;;
68812;SDS011;55808;48.112;11.552;2022-08-19T11:51:30;54.60;;;51.00;;
68812;SDS011;55808;48.112;11.552;2022-08-19T11:53:57;52.27;;;49.80;;
68812;SDS011;55808;48.112;11.552;2022-08-19T11:56:24;51.03;;;48.40;;
68812;SDS011;55808;48.112;11.552;2022-08-19T11:58:51;52.40;;;49.73;;
68812;SDS011;55808;48.112;11.552;2022-08-19T12:01:18;53.07;;;50.13;;
68812;SDS011;55808;48.112;11.552;2022-08-19T12:03:46;52.60;;;50.00;;
68812;SDS011;55808;48.112;11.552;2022-08-19T12:06:14;50.87;;;48.57;;
68812;SDS011;55808;48.112;11.552;2022-08-19T12:08:42;51.70;;;49.20;;
68812;SDS011;55808;48.112;11.552;2022-08-19T12:11:09;51.70;;;49.23;;
68812;SDS011;55808;48.112;11.552;2022-08-19T12:13:36;50.70;;;48.43;;
68812;SDS011;55808;48.112;11.552;2022-08-19T12:16:13;50.10;;;47.40;;
68812;SDS011;55808;48.112;11.552;2022-08-19T12:18:41;47.80;;;45.90;;
68812;SDS011;55808;48.112;11.552;2022-08-19T12:21:21;48.10;;;46.10;;
68812;SDS011;55808;48.112;11.552;2022-08-19T12:23:53;48.30;;;46.00;;
68812;SDS011;55808;48.112;11.552;2022-08-19T12:26:19;50.60;;;47.90;;
68812;SDS011;55808;48.112;11.552;2022-08-19T12:28:45;47.60;;;45.70;;
68812;SDS011;55808;48.112;11.552;2022-08-19T12:31:12;49.20;;;47.20;;
68812;SDS011;55808;48.112;11.552;2022-08-19T12:33:38;49.00;;;47.00;;
68812;SDS011;55808;48.112;11.552;2022-08-19T12:36:05;47.73;;;45.60;;
68812;SDS011;55808;48.112;11.552;2022-08-19T12:38:33;49.90;;;47.87;;
68812;SDS011;55808;48.112;11.552;2022-08-19T12:40:59;51.57;;;48.70;;
68812;SDS011;55808;48.112;11.552;2022-08-19T12:43:28;48.67;;;46.43;;
68812;SDS011;55808;48.112;11.552;2022-08-19T12:45:55;51.47;;;49.00;;
68812;SDS011;55808;48.112;11.552;2022-08-19T12:48:21;49.47;;;47.50;;
68812;SDS011;55808;48.112;11.552;2022-08-19T12:50:46;49.43;;;47.27;;
68812;SDS011;55808;48.112;11.552;2022-08-19T12:53:12;49.77;;;47.73;;
68812;SDS011;55808;48.112;11.552;2022-08-19T12:55:39;49.40;;;47.50;;
68812;SDS011;55808;48.112;11.552;2022-08-19T12:58:06;50.20;;;48.10;;
68812;SDS011;55808;48.112;11.552;2022-08-19T13:00:31;50.03;;;48.03;;
68812;SDS011;55808;48.112;11.552;2022-08-19T13:02:57;52.27;;;49.77;;
68812;SDS011;55808;48.112;11.552;2022-08-19T13:05:25;50.73;;;48.83;;
68812;SDS011;55808;48.112;11.552;2022-08-19T13:07:53;51.43;;;49.23;;
68812;SDS011;55808;48.112;11.552;2022-08-19T13:10:25;53.33;;;50.93;;
68812;SDS011;55808;48.112;11.552;2022-08-19T13:12:53;52.77;;;50.77;;
68812;SDS011;55808;48.112;11.552;2022-08-19T13:15:20;53.63;;;51.60;;
68812;SDS011;55808;48.112;11.552;2022-08-19T13:17:50;56.87;;;53.67;;
68812;SDS011;55808;48.112;11.552;2022-08-19T13:20:18;57.37;;;54.53;;
68812;SDS011;55808;48.112;11.552;2022-08-19T13:22:45;56.13;;;53.60;;
68812;SDS011;55808;48.112;11.552;2022-08-19T13:25:12;55.80;;;53.40;;
68812;SDS011;55808;48.112;11.552;2022-08-19T13:27:39;55.80;;;53.50;;
68812;SDS011;55808;48.112;11.552;2022-08-19T13:30:06;55.60;;;53.00;;
68812;SDS011;55808;48.112;11.552;2022-08-19T13:32:53;58.50;;;54.93;;
68812;SDS011;55808;48.112;11.552;2022-08-19T13:35:39;54.27;;;52.07;;
68812;SDS011;55808;48.112;11.552;2022-08-19T13:38:12;55.47;;;53.37;;
68812;SDS011;55808;48.112;11.552;2022-08-19T13:40:39;56.13;;;53.93;;
68812;SDS011;55808;48.112;11.552;2022-08-19T13:43:05;56.07;;;53.30;;
68812;SDS011;55808;48.112;11.552;2022-08-19T13:45:32;56.57;;;54.17;;
68812;SDS011;55808;48.112;11.552;2022-08-19T13:47:59;57.87;;;54.77;;
68812;SDS011;55808;48.112;11.552;2022-08-19T13:50:27;56.47;;;53.60;;
68812;SDS011;55808;48.112;11.552;2022-08-19T13:52:56;54.60;;;51.87;;
68812;SDS011;55808;48.112;11.552;2022-08-19T13:55:22;57.10;;;53.70;;
68812;SDS011;55808;48.112;11.552;2022-08-19T13:57:52;55.00;;;52.60;;
68812;SDS011;55808;48.112;11.552;2022-08-19T14:00:18;55.03;;;52.03;;
68812;SDS011;55808;48.112;11.552;2022-08-19T14:02:46;52.70;;;50.47;;
68812;SDS011;55808;48.112;11.552;2022-08-19T14:05:13;52.17;;;49.97;;
68812;SDS011;55808;48.112;11.552;2022-08-19T14:07:40;53.57;;;50.77;;
68812;SDS011;55808;48.112;11.552;2022-08-19T14:10:07;52.87;;;50.50;;
68812;SDS011;55808;48.112;11.552;2022-08-19T14:12:34;52.33;;;50.23;;
68812;SDS011;55808;48.112;11.552;2022-08-19T14:15:00;55.07;;;51.83;;
68812;SDS011;55808;48.112;11.552;2022-08-19T14:17:27;52.97;;;50.67;;
68812;SDS011;55808;48.112;11.552;2022-08-19T14:20:00;52.10;;;49.70;;
68812;SDS011;55808;48.112;11.552;2022-08-19T14:22:32;54.23;;;51.70;;
68812;SDS011;55808;48.112;11.552;2022-08-19T14:24:58;53.27;;;50.73;;